Flight Track Log - Related Links

Times and Time Zones

All times are in EDT time to prevent confusion due to time zone crossing. See the EJA583 flight status page for this flight to view local times or setup timezone preferences in your user account.


Time Position Orientation Groundspeed Altitude Reporting Facility
EDT Latitude Longitude Course Direction KTS MPH feet Rate Location/Type
Sun 04:58:53 PM 34.1814 -118.4856 39° Northeast 178 205 35,000  Level Los Angeles Center
Sun 04:59:55 PM 34.1450 -118.4497 141° Southeast 211 243 3,500 -13,403 Descending Los Angeles Center
Sun 05:00:57 PM 34.1831 -118.3925 51° Northeast 246 283 7,300 3,168 Climbing Los Angeles Center
Sun 05:02:00 PM 34.2458 -118.4342 331° Northwest 258 297 10,100 2,250 Climbing Los Angeles Center
Sun 05:03:13 PM 34.3217 -118.4622 343° North 294 338 12,400 1,765 Climbing Los Angeles Center
Sun 05:04:00 PM 34.4604 -118.3063 39° Northeast  Level FlightAware Approximate
Sun 05:04:16 PM 34.4306 -118.4417 North 346 398 14,100  Level Los Angeles Center
Sun 05:05:18 PM 34.4944 -118.3461 51° Northeast 363 418 15,700 1,984 Climbing Los Angeles Center
Sun 05:06:20 PM 34.5233 -118.2358 72° East 352 405 18,200 2,584 Climbing Los Angeles Center
Sun 05:07:35 PM 34.4933 -118.0953 104° East 332 382 21,600 2,102 Climbing Los Angeles Center
Sun 05:08:37 PM 34.4719 -117.9850 103° East 336 387 23,000 1,258 Climbing Los Angeles Center
Sun 05:09:39 PM 34.4436 -117.8372 103° East 374 430 24,200 1,065 Climbing Los Angeles Center
Sun 05:10:41 PM 34.4172 -117.7108 104° East 387 445 25,200 1,210 Climbing Los Angeles Center
Sun 05:11:43 PM 34.3900 -117.5842 105° East 391 450 26,700 1,742 Climbing Los Angeles Center
Sun 05:12:45 PM 34.3653 -117.4697 105° East 378 435 28,800 2,081 Climbing Los Angeles Center
Sun 05:13:47 PM 34.3361 -117.3328 104° East 353 406 31,000 1,742 Climbing Los Angeles Center
Sun 05:14:49 PM 34.3086 -117.2150 106° East 359 413 32,400 1,392 Climbing Los Angeles Center
Sun 05:15:52 PM 34.2719 -117.0886 109° East 380 437 33,900 1,200 Climbing Los Angeles Center
Sun 05:16:54 PM 34.2403 -116.9669 107° East 381 438 34,900 532 Climbing Los Angeles Center
Sun 05:17:56 PM 34.2075 -116.8456 108° East 382 440 35,000 48 Climbing Los Angeles Center
Sun 05:18:58 PM 34.1733 -116.7233 109° East 383 441 35,000  Level Los Angeles Center
Sun 05:20:00 PM 34.1394 -116.6025 109° East 382 440 35,000  Level Los Angeles Center
Sun 05:21:02 PM 34.0997 -116.4589 108° East 373 429 35,000  Level Los Angeles Center
Sun 05:22:04 PM 34.0592 -116.3372 112° Southeast 385 443 35,000  Level Los Angeles Center
Sun 05:23:06 PM 34.0236 -116.2186 110° East 378 435 35,000  Level Los Angeles Center
Sun 05:24:09 PM 33.9892 -116.1006 109° East 374 430 35,000  Level Los Angeles Center
Sun 05:25:11 PM 33.9528 -115.9822 110° East 375 432 35,000  Level Los Angeles Center
Sun 05:26:13 PM 33.9169 -115.8617 110° East 379 436 35,000  Level Los Angeles Center
Sun 05:27:15 PM 33.8739 -115.7178 110° East 380 437 35,000  Level Los Angeles Center
Sun 05:28:17 PM 33.8408 -115.5983 108° East 377 434 35,000  Level Los Angeles Center
Sun 05:29:19 PM 33.8072 -115.4775 108° East 378 435 35,000  Level Los Angeles Center
Sun 05:30:21 PM 33.7756 -115.3578 108° East 377 434 35,000  Level Los Angeles Center
Sun 05:31:23 PM 33.7433 -115.2358 108° East 381 438 35,000  Level Los Angeles Center
Sun 05:32:25 PM 33.7103 -115.1167 108° East 379 436 35,000 -48 Level Los Angeles Center
Sun 05:33:27 PM 33.6672 -114.9753 110° East 376 433 34,900 -672 Descending Los Angeles Center
Sun 05:34:30 PM 33.6272 -114.8547 112° Southeast 391 450 33,600 -1,488 Descending Los Angeles Center
Sun 05:35:32 PM 33.5811 -114.7264 113° Southeast 417 480 31,800 -1,597 Descending Los Angeles Center
Sun 05:36:34 PM 33.5336 -114.5972 114° Southeast 423 487 30,300 -1,500 Descending Los Angeles Center
Sun 05:37:36 PM 33.4911 -114.4694 112° Southeast 415 478 28,700 -2,016 Descending Los Angeles Center
Sun 05:38:39 PM 33.4378 -114.3239 114° Southeast 417 480 26,100 -1,776 Descending Albuquerque Center
Sun 05:39:41 PM 33.3911 -114.1978 114° Southeast 417 480 25,000 -532 Descending Albuquerque Center
Sun 05:40:43 PM 33.3625 -114.0725 105° East 398 458 25,000  Level Albuquerque Center
Sun 05:41:45 PM 33.3489 -113.9428 97° East 392 451 25,000 -195 Level Albuquerque Center
Sun 05:42:46 PM 33.3400 -113.8125 95° East 393 452 24,600 -683 Descending Albuquerque Center
Sun 05:43:48 PM 33.3292 -113.6797 96° East 399 459 23,600 -1,355 Descending Albuquerque Center
Sun 05:44:50 PM 33.3150 -113.5158 96° East 410 472 21,800 -1,935 Descending Albuquerque Center
Sun 05:45:52 PM 33.3031 -113.3803 96° East 412 474 19,600 -2,293 Descending Albuquerque Center
Sun 05:46:53 PM 33.2919 -113.2506 96° East 398 458 17,100 -2,146 Descending Albuquerque Center
Sun 05:47:55 PM 33.2825 -113.1258 95° East 383 441 15,200 -1,597 Descending Albuquerque Center
Sun 05:48:57 PM 33.2739 -113.0058 95° East 368 423 13,800 -1,610 Descending Albuquerque Center
Sun 05:49:58 PM 33.2681 -112.8903 93° East 354 407 11,900 -1,366 Descending Albuquerque Center
Sun 05:51:00 PM 33.2675 -112.7889 90° East 318 366 11,000 -484 Descending Albuquerque Center
Sun 05:52:02 PM 33.2742 -112.6931 85° East 295 339 10,900 -439 Descending Albuquerque Center
Sun 05:53:03 PM 33.2328 -112.5872 115° Southeast 299 344 10,100 -439 Descending Albuquerque Center
Sun 05:54:05 PM 33.1986 -112.5094 118° Southeast 292 336 10,000 -532 Descending Albuquerque Center
Sun 05:55:07 PM 33.1633 -112.4181 115° Southeast 306 352 9,000 -488 Descending Albuquerque Center
Sun 05:56:08 PM 33.1517 -112.3253 99° East 289 333 9,000 -634 Level Albuquerque Center
Sun 05:57:10 PM 33.1358 -112.2094 99° East 296 341 7,700 -1,355 Descending Albuquerque Center
Sun 05:58:12 PM 33.1253 -112.1206 98° East 277 319 6,200 -1,268 Descending Albuquerque Center
Sun 05:59:13 PM 33.1131 -112.0306 99° East 276 318 5,100 -585 Descending Albuquerque Center
Sun 06:00:15 PM 33.1219 -111.9478 83° East 256 295 5,000 -48 Descending Albuquerque Center
Sun 06:01:17 PM 33.1350 -111.8664 79° East 252 290 5,000  Level Albuquerque Center
Sun 06:02:18 PM 33.1467 -111.7928 79° East 232 267 5,000 -293 Level Albuquerque Center
Sun 06:03:20 PM 33.1719 -111.7081 70° East 229 264 4,400 -774 Descending Albuquerque Center
Sun 06:04:22 PM 33.2011 -111.6486 60° Northeast 211 243 3,400 -878 Descending Albuquerque Center
Sun 06:05:23 PM 33.2428 -111.6161 33° Northeast 183 211 2,600 -780 Descending Albuquerque Center
Sun 06:06:25 PM 33.2822 -111.6294 344° North 150 173 1,800 -634 Descending Albuquerque Center
Sun 06:07:26 PM 33.3092 -111.6597 317° Northwest 126 145 1,300 -492 Descending Albuquerque Center

Login

Don't have an account? Register now (free) for customized features, flight alerts, and more!